createdAt,value
2018-06-02T00:00:55.744Z,0.00
2018-06-02T00:01:55.721Z,0.00
2018-06-02T00:02:55.654Z,0.00
2018-06-02T00:03:55.603Z,0.00
2018-06-02T00:04:55.561Z,0.00
2018-06-02T00:05:55.514Z,0.00
2018-06-02T00:06:55.497Z,0.00
2018-06-02T00:07:55.425Z,0.00
2018-06-02T00:08:55.382Z,0.00
2018-06-02T00:09:55.333Z,0.00
2018-06-02T00:10:55.292Z,0.00
2018-06-02T00:11:55.270Z,0.00
2018-06-02T00:12:55.201Z,0.00
2018-06-02T00:13:55.153Z,0.00
2018-06-02T00:14:55.110Z,0.00
2018-06-02T00:15:55.078Z,0.00
2018-06-02T00:16:55.046Z,0.00
2018-06-02T00:17:54.973Z,0.00
2018-06-02T00:18:54.929Z,0.00
2018-06-02T00:19:54.885Z,0.00
2018-06-02T00:20:54.839Z,0.00
2018-06-02T00:21:54.817Z,0.00
2018-06-02T00:22:54.751Z,0.00
2018-06-02T00:23:54.701Z,0.00
2018-06-02T00:24:54.664Z,0.00
2018-06-02T00:25:54.613Z,0.00
2018-06-02T00:26:54.596Z,0.00
2018-06-02T00:27:54.532Z,0.00
2018-06-02T00:28:54.490Z,0.00
2018-06-02T00:29:54.441Z,0.00
2018-06-02T00:30:54.389Z,0.00
2018-06-02T00:31:54.368Z,0.00
2018-06-02T00:32:54.296Z,0.00
2018-06-02T00:33:54.251Z,0.00
2018-06-02T00:34:54.205Z,0.00
2018-06-02T00:35:54.163Z,0.00
2018-06-02T00:36:54.138Z,0.00
2018-06-02T00:37:54.079Z,0.00
2018-06-02T00:38:54.028Z,0.00
2018-06-02T00:39:53.988Z,0.00
2018-06-02T00:40:53.932Z,0.00
2018-06-02T00:41:53.915Z,0.00
2018-06-02T00:42:53.844Z,0.00
2018-06-02T00:43:53.801Z,0.00
2018-06-02T00:44:53.754Z,0.00
2018-06-02T00:45:53.713Z,0.00
2018-06-02T00:46:53.689Z,0.00
2018-06-02T00:47:53.619Z,0.00
2018-06-02T00:48:53.577Z,0.00
2018-06-02T00:49:53.531Z,0.00
2018-06-02T00:50:53.485Z,0.00
2018-06-02T00:51:53.460Z,0.00
2018-06-02T00:52:53.393Z,0.00
2018-06-02T00:53:53.350Z,0.00
2018-06-02T00:54:53.302Z,0.00
2018-06-02T00:55:53.257Z,0.00
2018-06-02T00:56:53.236Z,0.00
2018-06-02T00:57:53.171Z,0.00
2018-06-02T00:58:53.125Z,0.00
2018-06-02T00:59:53.075Z,0.00
2018-06-02T01:00:53.039Z,0.00
2018-06-02T01:01:53.011Z,0.00
2018-06-02T01:02:52.939Z,0.00
2018-06-02T01:03:52.895Z,0.00
2018-06-02T01:04:52.851Z,0.00
2018-06-02T01:05:52.803Z,0.00
2018-06-02T01:06:52.783Z,0.00
2018-06-02T01:07:52.714Z,0.00
2018-06-02T01:08:52.670Z,0.00
2018-06-02T01:09:52.625Z,0.00
2018-06-02T01:10:52.580Z,0.00
2018-06-02T01:11:52.556Z,0.00
2018-06-02T01:12:52.487Z,0.00
2018-06-02T01:13:52.449Z,0.00
2018-06-02T01:14:52.398Z,0.00
2018-06-02T01:15:52.352Z,0.00
2018-06-02T01:16:52.335Z,0.00
2018-06-02T01:17:52.264Z,0.00
2018-06-02T01:18:52.215Z,0.00
2018-06-02T01:19:52.171Z,0.00
2018-06-02T01:20:52.183Z,0.00
2018-06-02T01:21:52.103Z,0.00
2018-06-02T01:22:52.035Z,0.00
2018-06-02T01:23:51.992Z,0.00
2018-06-02T01:24:51.945Z,0.00
2018-06-02T01:25:51.900Z,0.00
2018-06-02T01:26:51.882Z,0.00
2018-06-02T01:27:51.805Z,0.00
2018-06-02T01:28:51.768Z,0.00
2018-06-02T01:29:51.716Z,0.00
2018-06-02T01:30:51.672Z,0.00
2018-06-02T01:31:51.652Z,0.00
2018-06-02T01:32:51.583Z,0.00
2018-06-02T01:33:51.539Z,0.00
2018-06-02T01:34:51.489Z,0.00
2018-06-02T01:35:51.449Z,0.00
2018-06-02T01:36:51.422Z,0.00
2018-06-02T01:37:51.357Z,0.00
2018-06-02T01:38:51.315Z,0.00
2018-06-02T01:39:51.265Z,0.00
2018-06-02T01:40:51.218Z,0.00
2018-06-02T01:41:51.204Z,0.00
2018-06-02T01:42:51.131Z,0.00
2018-06-02T01:43:51.081Z,0.00
2018-06-02T01:44:51.036Z,0.00
2018-06-02T01:45:50.996Z,0.00
2018-06-02T01:46:50.976Z,0.00
2018-06-02T01:47:50.899Z,0.00
2018-06-02T01:48:50.863Z,0.00
2018-06-02T01:49:50.812Z,0.00
2018-06-02T01:50:50.763Z,0.00
2018-06-02T01:51:50.745Z,0.00
2018-06-02T01:52:50.672Z,0.00
2018-06-02T01:53:50.630Z,0.00
2018-06-02T01:54:50.585Z,0.00
2018-06-02T01:55:50.541Z,0.00
2018-06-02T01:56:50.518Z,0.00
2018-06-02T01:57:50.448Z,0.00
2018-06-02T01:58:50.410Z,0.00
2018-06-02T01:59:50.356Z,0.00
2018-06-02T02:00:50.313Z,0.00
2018-06-02T02:01:50.288Z,0.00
2018-06-02T02:02:50.218Z,0.00
2018-06-02T02:03:50.177Z,0.00
2018-06-02T02:04:50.128Z,0.00
2018-06-02T02:05:50.082Z,0.00
2018-06-02T02:06:50.065Z,0.00
2018-06-02T02:07:49.992Z,0.00
2018-06-02T02:08:49.945Z,0.00
2018-06-02T02:09:49.906Z,0.00
2018-06-02T02:10:49.854Z,0.00
2018-06-02T02:11:49.833Z,0.00
2018-06-02T02:12:49.765Z,0.00
2018-06-02T02:13:49.718Z,0.00
2018-06-02T02:14:49.679Z,0.00
2018-06-02T02:15:49.631Z,0.00
2018-06-02T02:16:49.607Z,0.00
2018-06-02T02:17:49.539Z,0.00
2018-06-02T02:18:49.492Z,0.00
2018-06-02T02:19:49.447Z,0.00
2018-06-02T02:20:49.402Z,0.00
2018-06-02T02:21:49.381Z,0.00
2018-06-02T02:22:49.308Z,0.00
2018-06-02T02:23:49.264Z,0.00
2018-06-02T02:24:49.219Z,0.00
2018-06-02T02:25:49.173Z,0.00
2018-06-02T02:26:49.169Z,0.00
2018-06-02T02:27:49.081Z,0.00
2018-06-02T02:28:49.038Z,0.00
2018-06-02T02:29:48.991Z,0.00
2018-06-02T02:30:48.946Z,0.00
2018-06-02T02:31:48.904Z,0.00
2018-06-02T02:32:48.874Z,0.00
2018-06-02T02:33:48.809Z,0.00
2018-06-02T02:34:48.769Z,0.00
2018-06-02T02:35:48.724Z,0.00
2018-06-02T02:36:48.678Z,0.00
2018-06-02T02:37:48.651Z,0.00
2018-06-02T02:38:48.581Z,0.00
2018-06-02T02:39:48.534Z,0.00
2018-06-02T02:40:48.496Z,0.00
2018-06-02T02:41:48.441Z,0.00
2018-06-02T02:42:48.416Z,0.00
2018-06-02T02:43:48.349Z,0.00
2018-06-02T02:44:48.309Z,0.00
2018-06-02T02:45:48.262Z,4.00
2018-06-02T02:46:48.214Z,4.00
2018-06-02T02:47:48.193Z,4.00
2018-06-02T02:48:48.121Z,4.00
2018-06-02T02:49:48.079Z,4.00
2018-06-02T02:50:48.033Z,4.00
2018-06-02T02:51:47.988Z,4.00
2018-06-02T02:52:47.967Z,0.00
2018-06-02T02:53:47.897Z,0.00
2018-06-02T02:54:47.852Z,0.00
2018-06-02T02:55:47.803Z,0.00
2018-06-02T02:56:47.758Z,4.00
2018-06-02T02:57:47.738Z,4.00
2018-06-02T02:58:47.671Z,4.00
2018-06-02T02:59:47.652Z,4.00
2018-06-02T03:00:47.574Z,4.00
2018-06-02T03:01:47.528Z,4.00
2018-06-02T03:02:47.512Z,4.00
2018-06-02T03:03:47.436Z,4.00
2018-06-02T03:04:47.391Z,8.00
2018-06-02T03:05:47.344Z,8.00
2018-06-02T03:06:47.303Z,8.00
2018-06-02T03:07:47.280Z,8.00
2018-06-02T03:08:47.212Z,12.00
2018-06-02T03:09:47.165Z,12.00
2018-06-02T03:10:47.119Z,12.00
2018-06-02T03:11:47.074Z,12.00
2018-06-02T03:12:47.051Z,12.00
2018-06-02T03:13:46.987Z,12.00
2018-06-02T03:14:46.940Z,16.00
2018-06-02T03:15:46.893Z,16.00
2018-06-02T03:16:46.846Z,20.00
2018-06-02T03:17:46.823Z,24.00
2018-06-02T03:18:46.752Z,24.00
2018-06-02T03:19:46.708Z,24.00
2018-06-02T03:20:46.666Z,28.00
2018-06-02T03:21:46.618Z,28.00
2018-06-02T03:22:46.598Z,32.00
2018-06-02T03:23:46.524Z,36.00
2018-06-02T03:24:46.478Z,40.00
2018-06-02T03:25:46.435Z,48.00
2018-06-02T03:26:46.392Z,52.00
2018-06-02T03:27:46.367Z,64.00
2018-06-02T03:28:46.298Z,68.00
2018-06-02T03:29:46.250Z,72.00
2018-06-02T03:30:46.206Z,68.00
2018-06-02T03:31:46.166Z,72.00
2018-06-02T03:32:46.137Z,68.00
2018-06-02T03:33:46.066Z,64.00
2018-06-02T03:34:46.021Z,80.00
2018-06-02T03:35:45.975Z,80.00
2018-06-02T03:36:45.933Z,80.00
2018-06-02T03:37:45.908Z,80.00
2018-06-02T03:38:45.842Z,84.00
2018-06-02T03:39:45.795Z,96.00
2018-06-02T03:40:45.746Z,100.00
2018-06-02T03:41:45.705Z,100.00
2018-06-02T03:42:45.685Z,104.00
2018-06-02T03:43:45.611Z,108.00
2018-06-02T03:44:45.568Z,104.00
2018-06-02T03:45:45.518Z,100.00
2018-06-02T03:46:45.473Z,108.00
2018-06-02T03:47:45.456Z,96.00
2018-06-02T03:48:45.382Z,96.00
2018-06-02T03:49:45.337Z,100.00
2018-06-02T03:50:45.292Z,100.00
2018-06-02T03:51:45.241Z,104.00
2018-06-02T03:52:45.219Z,92.00
2018-06-02T03:53:45.159Z,96.00
2018-06-02T03:54:45.105Z,92.00
2018-06-02T03:55:45.068Z,108.00
2018-06-02T03:56:45.019Z,112.00
2018-06-02T03:57:44.993Z,112.00
2018-06-02T03:58:44.928Z,124.00
2018-06-02T03:59:44.882Z,128.00
2018-06-02T04:00:44.832Z,144.00
2018-06-02T04:01:44.785Z,136.00
2018-06-02T04:02:44.765Z,132.00
2018-06-02T04:03:44.693Z,140.00
2018-06-02T04:04:44.650Z,144.00
2018-06-02T04:05:44.603Z,140.00
2018-06-02T04:06:44.559Z,148.00
2018-06-02T04:07:51.782Z,148.00
2018-06-02T04:08:44.468Z,140.00
2018-06-02T04:09:44.430Z,156.00
2018-06-02T04:10:44.387Z,148.00
2018-06-02T04:11:44.327Z,144.00
2018-06-02T04:12:44.311Z,136.00
2018-06-02T04:13:44.240Z,136.00
2018-06-02T04:14:44.195Z,140.00
2018-06-02T04:15:44.152Z,132.00
2018-06-02T04:16:44.100Z,136.00
2018-06-02T04:17:44.079Z,124.00
2018-06-02T04:18:44.010Z,124.00
2018-06-02T04:19:43.962Z,132.00
2018-06-02T04:20:43.918Z,132.00
2018-06-02T04:21:43.877Z,132.00
2018-06-02T04:22:43.847Z,124.00
2018-06-02T04:23:43.782Z,128.00
2018-06-02T04:24:43.735Z,128.00
2018-06-02T04:25:43.689Z,124.00
2018-06-02T04:26:43.642Z,120.00
2018-06-02T04:27:43.624Z,124.00
2018-06-02T04:28:43.554Z,124.00
2018-06-02T04:29:43.508Z,124.00
2018-06-02T04:30:43.465Z,124.00
2018-06-02T04:31:43.415Z,124.00
2018-06-02T04:32:43.391Z,128.00
2018-06-02T04:33:43.346Z,132.00
2018-06-02T04:34:43.281Z,140.00
2018-06-02T04:35:43.229Z,148.00
2018-06-02T04:36:43.187Z,148.00
2018-06-02T04:37:43.164Z,144.00
2018-06-02T04:38:43.093Z,144.00
2018-06-02T04:39:43.044Z,148.00
2018-06-02T04:40:43.004Z,156.00
2018-06-02T04:41:42.956Z,156.00
2018-06-02T04:42:42.933Z,152.00
2018-06-02T04:43:42.866Z,148.00
2018-06-02T04:44:42.817Z,144.00
2018-06-02T04:45:42.774Z,148.00
2018-06-02T04:46:42.730Z,152.00
2018-06-02T04:47:42.705Z,148.00
2018-06-02T04:48:42.635Z,148.00
2018-06-02T04:49:42.592Z,152.00
2018-06-02T04:50:42.545Z,152.00
2018-06-02T04:51:42.501Z,148.00
2018-06-02T04:52:42.475Z,156.00
2018-06-02T04:53:42.408Z,160.00
2018-06-02T04:54:42.364Z,156.00
2018-06-02T04:55:42.314Z,168.00
2018-06-02T04:56:42.271Z,168.00
2018-06-02T04:57:42.250Z,176.00
2018-06-02T04:58:42.182Z,196.00
2018-06-02T04:59:42.138Z,276.00
2018-06-02T05:00:42.091Z,288.00
2018-06-02T05:01:42.043Z,276.00
2018-06-02T05:02:42.026Z,284.00
2018-06-02T05:03:41.948Z,312.00
2018-06-02T05:04:41.904Z,304.00
2018-06-02T05:05:41.860Z,300.00
2018-06-02T05:06:41.819Z,324.00
2018-06-02T05:07:41.794Z,344.00
2018-06-02T05:08:41.720Z,316.00
2018-06-02T05:09:41.679Z,296.00
2018-06-02T05:10:41.630Z,276.00
2018-06-02T05:11:41.585Z,284.00
2018-06-02T05:12:41.568Z,296.00
2018-06-02T05:13:41.544Z,328.00
2018-06-02T05:14:41.452Z,332.00
2018-06-02T05:15:41.402Z,328.00
2018-06-02T05:16:41.358Z,292.00
2018-06-02T05:17:41.308Z,296.00
2018-06-02T05:18:41.288Z,304.00
2018-06-02T05:19:41.218Z,316.00
2018-06-02T05:20:41.178Z,332.00
2018-06-02T05:21:41.128Z,336.00
2018-06-02T05:22:41.088Z,340.00
2018-06-02T05:23:41.059Z,328.00
2018-06-02T05:24:40.991Z,400.00
2018-06-02T05:25:40.947Z,428.00
2018-06-02T05:26:40.899Z,400.00
2018-06-02T05:27:40.854Z,336.00
2018-06-02T05:28:40.829Z,344.00
2018-06-02T05:29:40.763Z,332.00
2018-06-02T05:30:40.717Z,332.00
2018-06-02T05:31:40.674Z,360.00
2018-06-02T05:32:40.624Z,344.00
2018-06-02T05:33:40.602Z,360.00
2018-06-02T05:34:40.534Z,348.00
2018-06-02T05:35:40.486Z,356.00
2018-06-02T05:36:40.444Z,368.00
2018-06-02T05:37:40.399Z,384.00
2018-06-02T05:38:40.375Z,420.00
2018-06-02T05:39:40.305Z,460.00
2018-06-02T05:40:40.260Z,544.00
2018-06-02T05:41:40.215Z,560.00
2018-06-02T05:42:40.170Z,540.00
2018-06-02T05:43:40.144Z,572.00
2018-06-02T05:44:40.078Z,636.00
2018-06-02T05:45:40.034Z,728.00
2018-06-02T05:46:39.988Z,684.00
2018-06-02T05:47:39.940Z,696.00
2018-06-02T05:48:39.916Z,844.00
2018-06-02T05:49:39.852Z,872.00
2018-06-02T05:50:39.806Z,864.00
2018-06-02T05:51:39.760Z,920.00
2018-06-02T05:52:39.710Z,992.00
2018-06-02T05:53:39.688Z,868.00
2018-06-02T05:54:39.669Z,852.00
2018-06-02T05:55:39.573Z,1008.00
2018-06-02T05:56:39.529Z,1080.00
2018-06-02T05:57:39.482Z,1152.00
2018-06-02T05:58:39.459Z,1156.00
2018-06-02T05:59:39.389Z,1184.00
2018-06-02T06:00:39.345Z,1320.00
2018-06-02T06:01:39.297Z,1276.00
2018-06-02T06:02:39.255Z,1312.00
2018-06-02T06:03:39.229Z,1236.00
2018-06-02T06:04:39.163Z,1260.00
2018-06-02T06:05:39.119Z,1192.00
2018-06-02T06:06:39.073Z,1088.00
2018-06-02T06:07:39.027Z,1144.00
2018-06-02T06:08:39.001Z,1052.00
2018-06-02T06:09:38.937Z,1008.00
2018-06-02T06:10:38.890Z,936.00
2018-06-02T06:11:38.842Z,912.00
2018-06-02T06:12:38.797Z,924.00
2018-06-02T06:13:38.772Z,876.00
2018-06-02T06:14:38.731Z,876.00
2018-06-02T06:15:38.660Z,980.00
2018-06-02T06:16:38.614Z,1324.00
2018-06-02T06:17:38.568Z,1464.00
2018-06-02T06:18:38.546Z,1412.00
2018-06-02T06:19:38.508Z,1468.00
2018-06-02T06:20:38.437Z,1412.00
2018-06-02T06:21:38.385Z,1460.00
2018-06-02T06:22:38.349Z,1496.00
2018-06-02T06:23:38.316Z,1500.00
2018-06-02T06:24:38.261Z,1360.00
2018-06-02T06:25:38.206Z,1476.00
2018-06-02T06:26:38.159Z,1468.00
2018-06-02T06:27:38.117Z,1464.00
2018-06-02T06:28:38.091Z,1360.00
2018-06-02T06:29:38.020Z,1304.00
2018-06-02T06:30:37.973Z,1392.00
2018-06-02T06:31:37.927Z,1240.00
2018-06-02T06:32:37.882Z,1148.00
2018-06-02T06:33:37.864Z,1204.00
2018-06-02T06:34:37.795Z,1260.00
2018-06-02T06:35:37.746Z,1324.00
2018-06-02T06:36:37.702Z,1332.00
2018-06-02T06:37:37.658Z,1372.00
2018-06-02T06:38:37.639Z,1300.00
2018-06-02T06:39:37.566Z,1612.00
2018-06-02T06:40:37.518Z,1504.00
2018-06-02T06:41:37.503Z,1484.00
2018-06-02T06:42:37.433Z,1436.00
2018-06-02T06:43:37.410Z,1592.00
2018-06-02T06:44:37.404Z,1520.00
2018-06-02T06:45:37.291Z,1696.00
2018-06-02T06:46:37.287Z,1848.00
2018-06-02T06:47:37.198Z,1472.00
2018-06-02T06:48:37.186Z,1596.00
2018-06-02T06:49:37.111Z,1560.00
2018-06-02T06:50:37.104Z,1648.00
2018-06-02T06:51:37.023Z,1840.00
2018-06-02T06:52:36.979Z,1640.00
2018-06-02T06:53:36.948Z,1688.00
2018-06-02T06:54:36.881Z,2004.00
2018-06-02T06:55:36.836Z,1732.00
2018-06-02T06:56:36.792Z,1948.00
2018-06-02T06:57:36.783Z,1984.00
2018-06-02T06:58:36.722Z,2040.00
2018-06-02T06:59:36.648Z,2488.00
2018-06-02T07:00:36.610Z,2376.00
2018-06-02T07:01:36.559Z,2100.00
2018-06-02T07:02:36.521Z,2588.00
2018-06-02T07:03:36.495Z,2244.00
2018-06-02T07:04:36.424Z,2160.00
2018-06-02T07:05:36.380Z,2128.00
2018-06-02T07:06:36.349Z,2304.00
2018-06-02T07:07:36.288Z,2160.00
2018-06-02T07:08:36.268Z,2080.00
2018-06-02T07:09:36.200Z,2164.00
2018-06-02T07:10:36.156Z,1880.00
2018-06-02T07:11:36.105Z,1844.00
2018-06-02T07:12:36.059Z,1764.00
2018-06-02T07:13:36.039Z,1972.00
2018-06-02T07:14:35.969Z,2156.00
2018-06-02T07:15:35.929Z,2136.00
2018-06-02T07:16:35.885Z,2680.00
2018-06-02T07:17:35.830Z,2428.00
2018-06-02T07:18:35.809Z,2344.00
2018-06-02T07:19:35.746Z,2692.00
2018-06-02T07:20:35.694Z,2452.00
2018-06-02T07:21:35.650Z,2276.00
2018-06-02T07:22:35.605Z,2944.00
2018-06-02T07:23:35.588Z,3112.00
2018-06-02T07:24:35.517Z,2740.00
2018-06-02T07:25:35.475Z,2196.00
2018-06-02T07:26:35.424Z,1988.00
2018-06-02T07:27:35.391Z,2164.00
2018-06-02T07:28:35.354Z,1976.00
2018-06-02T07:29:35.290Z,1976.00
2018-06-02T07:30:35.243Z,2148.00
2018-06-02T07:31:35.194Z,2188.00
2018-06-02T07:32:35.151Z,2708.00
2018-06-02T07:33:35.125Z,2404.00
2018-06-02T07:34:35.061Z,2652.00
2018-06-02T07:35:35.017Z,2604.00
2018-06-02T07:36:34.966Z,2516.00
2018-06-02T07:37:34.921Z,2568.00
2018-06-02T07:38:34.908Z,2580.00
2018-06-02T07:39:34.832Z,2560.00
2018-06-02T07:40:34.788Z,2528.00
2018-06-02T07:41:34.741Z,2712.00
2018-06-02T07:42:34.694Z,2400.00
2018-06-02T07:43:34.676Z,2388.00
2018-06-02T07:44:34.603Z,2168.00
2018-06-02T07:45:34.564Z,2084.00
2018-06-02T07:46:34.515Z,2108.00
2018-06-02T07:47:34.470Z,2084.00
2018-06-02T07:48:34.456Z,2232.00
2018-06-02T07:49:34.378Z,2324.00
2018-06-02T07:50:34.337Z,2064.00
2018-06-02T07:51:34.291Z,2488.00
2018-06-02T07:52:34.246Z,2468.00
2018-06-02T07:53:34.219Z,2232.00
2018-06-02T07:54:34.149Z,2292.00
2018-06-02T07:55:34.110Z,2436.00
2018-06-02T07:56:34.060Z,2500.00
2018-06-02T07:57:34.093Z,2268.00
2018-06-02T07:58:33.995Z,2348.00
2018-06-02T07:59:33.922Z,2156.00
2018-06-02T08:00:33.879Z,1788.00
2018-06-02T08:01:33.832Z,1872.00
2018-06-02T08:02:33.788Z,2136.00
2018-06-02T08:03:33.773Z,2512.00
2018-06-02T08:04:33.705Z,2400.00
2018-06-02T08:05:33.653Z,2524.00
2018-06-02T08:06:33.606Z,2476.00
2018-06-02T08:07:33.563Z,2420.00
2018-06-02T08:08:33.596Z,2040.00
2018-06-02T08:09:33.473Z,2272.00
2018-06-02T08:10:33.435Z,2036.00
2018-06-02T08:11:33.385Z,2168.00
2018-06-02T08:12:33.337Z,2436.00
2018-06-02T08:13:33.326Z,2780.00
2018-06-02T08:14:33.246Z,2752.00
2018-06-02T08:15:33.200Z,3832.00
2018-06-02T08:16:33.152Z,3216.00
2018-06-02T08:17:33.112Z,3568.00
2018-06-02T08:18:33.062Z,4384.00
2018-06-02T08:19:33.042Z,3296.00
2018-06-02T08:20:33.029Z,3552.00
2018-06-02T08:21:32.945Z,2836.00
2018-06-02T08:22:32.883Z,3248.00
2018-06-02T08:23:32.835Z,2920.00
2018-06-02T08:24:32.813Z,2356.00
2018-06-02T08:25:32.743Z,2800.00
2018-06-02T08:26:32.736Z,3296.00
2018-06-02T08:27:32.658Z,3048.00
2018-06-02T08:28:32.612Z,2516.00
2018-06-02T08:29:32.596Z,2716.00
2018-06-02T08:30:32.525Z,3204.00
2018-06-02T08:31:32.481Z,2776.00
2018-06-02T08:32:32.430Z,3340.00
2018-06-02T08:33:32.480Z,2388.00
2018-06-02T08:34:32.359Z,2792.00
2018-06-02T08:35:32.292Z,2220.00
2018-06-02T08:36:32.246Z,2192.00
2018-06-02T08:37:32.198Z,3008.00
2018-06-02T08:38:32.158Z,2356.00
2018-06-02T08:39:32.138Z,2572.00
2018-06-02T08:40:32.065Z,2868.00
2018-06-02T08:41:32.017Z,2960.00
2018-06-02T08:42:31.974Z,3932.00
2018-06-02T08:43:31.924Z,3408.00
2018-06-02T08:44:31.912Z,2864.00
2018-06-02T08:45:31.838Z,2660.00
2018-06-02T08:46:31.848Z,2680.00
2018-06-02T08:47:31.746Z,2548.00
2018-06-02T08:48:31.706Z,2296.00
2018-06-02T08:49:31.680Z,2724.00
2018-06-02T08:50:31.609Z,2444.00
2018-06-02T08:51:31.571Z,2456.00
2018-06-02T08:52:31.523Z,2500.00
2018-06-02T08:53:31.473Z,3732.00
2018-06-02T08:54:31.450Z,4652.00
2018-06-02T08:55:31.383Z,4276.00
2018-06-02T08:56:31.340Z,3612.00
2018-06-02T08:57:31.293Z,4144.00
2018-06-02T08:58:31.248Z,3796.00
2018-06-02T08:59:31.228Z,4044.00
2018-06-02T09:00:31.216Z,5060.00
2018-06-02T09:01:31.113Z,4192.00
2018-06-02T09:02:31.065Z,3764.00
2018-06-02T09:03:31.020Z,3604.00
2018-06-02T09:04:31.000Z,4140.00
2018-06-02T09:05:30.931Z,2588.00
2018-06-02T09:06:30.945Z,2724.00
2018-06-02T09:07:30.841Z,3604.00
2018-06-02T09:08:30.798Z,3272.00
2018-06-02T09:09:30.772Z,3068.00
2018-06-02T09:10:30.704Z,5004.00
2018-06-02T09:11:30.677Z,3644.00
2018-06-02T09:12:30.614Z,2972.00
2018-06-02T09:13:30.571Z,2972.00
2018-06-02T09:14:30.551Z,3156.00
2018-06-02T09:15:30.492Z,3080.00
2018-06-02T09:16:30.433Z,2968.00
2018-06-02T09:17:30.392Z,3208.00
2018-06-02T09:18:30.344Z,3776.00
2018-06-02T09:19:30.327Z,4692.00
2018-06-02T09:20:30.253Z,4944.00
2018-06-02T09:21:30.206Z,5400.00
2018-06-02T09:22:30.164Z,3572.00
2018-06-02T09:23:30.119Z,2736.00
2018-06-02T09:24:30.095Z,2692.00
2018-06-02T09:25:30.035Z,3028.00
2018-06-02T09:26:29.992Z,2884.00
2018-06-02T09:27:29.936Z,2436.00
2018-06-02T09:28:29.895Z,3716.00
2018-06-02T09:29:29.881Z,3676.00
2018-06-02T09:30:29.805Z,3020.00
2018-06-02T09:31:29.758Z,2680.00
2018-06-02T09:32:29.716Z,2412.00
2018-06-02T09:33:29.670Z,2764.00
2018-06-02T09:34:29.650Z,3072.00
2018-06-02T09:35:29.583Z,3552.00
2018-06-02T09:36:29.531Z,3888.00
2018-06-02T09:37:29.490Z,4780.00
2018-06-02T09:38:29.443Z,4136.00
2018-06-02T09:39:29.425Z,3504.00
2018-06-02T09:40:29.355Z,4748.00
2018-06-02T09:41:29.311Z,3448.00
2018-06-02T09:42:29.271Z,2864.00
2018-06-02T09:43:29.219Z,2812.00
2018-06-02T09:44:29.205Z,2428.00
2018-06-02T09:45:29.132Z,3032.00
2018-06-02T09:46:29.117Z,3200.00
2018-06-02T09:47:29.044Z,2668.00
2018-06-02T09:48:28.997Z,3096.00
2018-06-02T09:49:28.973Z,3060.00
2018-06-02T09:50:28.904Z,2956.00
2018-06-02T09:51:28.860Z,2840.00
2018-06-02T09:52:28.818Z,2564.00
2018-06-02T09:53:28.770Z,2188.00
2018-06-02T09:54:28.752Z,2768.00
2018-06-02T09:55:28.681Z,2728.00
2018-06-02T09:56:28.638Z,2948.00
2018-06-02T09:57:28.594Z,2628.00
2018-06-02T09:58:28.547Z,2128.00
2018-06-02T09:59:28.526Z,2336.00
2018-06-02T10:00:28.455Z,2520.00
2018-06-02T10:01:28.414Z,2140.00
2018-06-02T10:02:28.367Z,2932.00
2018-06-02T10:03:28.322Z,2780.00
2018-06-02T10:04:28.311Z,3332.00
2018-06-02T10:05:28.230Z,2720.00
2018-06-02T10:06:28.215Z,2520.00
2018-06-02T10:07:28.142Z,2008.00
2018-06-02T10:08:28.097Z,1948.00
2018-06-02T10:09:28.073Z,1640.00
2018-06-02T10:10:28.076Z,1676.00
2018-06-02T10:11:27.959Z,2248.00
2018-06-02T10:12:27.919Z,3000.00
2018-06-02T10:13:27.875Z,2988.00
2018-06-02T10:14:27.853Z,3748.00
2018-06-02T10:15:27.785Z,3752.00
2018-06-02T10:16:27.739Z,4184.00
2018-06-02T10:17:27.693Z,4700.00
2018-06-02T10:18:27.647Z,4644.00
2018-06-02T10:19:27.633Z,4844.00
2018-06-02T10:20:27.559Z,4788.00
2018-06-02T10:21:27.515Z,3708.00
2018-06-02T10:22:27.469Z,3640.00
2018-06-02T10:23:27.424Z,4064.00
2018-06-02T10:24:27.403Z,3808.00
2018-06-02T10:25:27.343Z,2772.00
2018-06-02T10:26:27.290Z,2824.00
2018-06-02T10:27:27.251Z,2844.00
2018-06-02T10:28:27.203Z,4180.00
2018-06-02T10:29:27.195Z,4580.00
2018-06-02T10:30:27.118Z,4836.00
2018-06-02T10:31:27.062Z,4748.00
2018-06-02T10:32:27.019Z,4468.00
2018-06-02T10:33:26.985Z,3796.00
2018-06-02T10:34:26.954Z,3456.00
2018-06-02T10:35:26.891Z,5092.00
2018-06-02T10:36:26.843Z,4100.00
2018-06-02T10:37:26.798Z,3640.00
2018-06-02T10:38:26.750Z,4228.00
2018-06-02T10:39:26.734Z,5736.00
2018-06-02T10:40:26.663Z,6600.00
2018-06-02T10:41:26.617Z,6500.00
2018-06-02T10:42:26.575Z,6852.00
2018-06-02T10:43:26.529Z,7236.00
2018-06-02T10:44:26.526Z,7764.00
2018-06-02T10:45:26.438Z,8940.00
2018-06-02T10:46:26.394Z,8888.00
2018-06-02T10:47:26.351Z,6932.00
2018-06-02T10:48:26.306Z,7224.00
2018-06-02T10:49:26.307Z,7076.00
2018-06-02T10:50:26.217Z,6320.00
2018-06-02T10:51:26.170Z,7372.00
2018-06-02T10:52:26.127Z,7332.00
2018-06-02T10:53:26.085Z,6420.00
2018-06-02T10:54:26.064Z,6136.00
2018-06-02T10:55:25.993Z,4716.00
2018-06-02T10:56:25.950Z,3776.00
2018-06-02T10:57:25.908Z,3624.00
2018-06-02T10:58:25.887Z,5372.00
2018-06-02T10:59:25.837Z,7508.00
2018-06-02T11:00:25.772Z,5896.00
2018-06-02T11:01:25.728Z,5004.00
2018-06-02T11:02:25.686Z,5372.00
2018-06-02T11:03:25.639Z,6936.00
2018-06-02T11:04:25.633Z,7196.00
2018-06-02T11:05:25.553Z,6704.00
2018-06-02T11:06:25.507Z,6444.00
2018-06-02T11:07:25.462Z,5880.00
2018-06-02T11:08:25.422Z,5976.00
2018-06-02T11:09:25.410Z,6024.00
2018-06-02T11:10:25.353Z,5628.00
2018-06-02T11:11:25.285Z,5608.00
2018-06-02T11:12:25.271Z,4744.00
2018-06-02T11:13:25.196Z,4204.00
2018-06-02T11:14:25.154Z,4820.00
2018-06-02T11:15:25.133Z,4252.00
2018-06-02T11:16:25.064Z,3396.00
2018-06-02T11:17:25.020Z,3204.00
2018-06-02T11:18:24.982Z,2408.00
2018-06-02T11:19:24.976Z,2904.00
2018-06-02T11:20:24.916Z,3580.00
2018-06-02T11:21:24.844Z,4344.00
2018-06-02T11:22:24.802Z,5644.00
2018-06-02T11:23:24.762Z,6964.00
2018-06-02T11:24:24.713Z,5072.00
2018-06-02T11:25:24.702Z,5304.00
2018-06-02T11:26:24.626Z,6288.00
2018-06-02T11:27:24.579Z,7116.00
2018-06-02T11:28:24.531Z,7468.00
2018-06-02T11:29:24.491Z,7660.00
2018-06-02T11:30:24.479Z,7488.00
2018-06-02T11:31:24.401Z,7360.00
2018-06-02T11:32:24.358Z,7340.00
2018-06-02T11:33:24.316Z,7692.00
2018-06-02T11:34:24.272Z,7652.00
2018-06-02T11:35:24.246Z,7316.00
2018-06-02T11:36:24.185Z,6656.00
2018-06-02T11:37:24.138Z,6904.00
2018-06-02T11:38:24.099Z,7276.00
2018-06-02T11:39:24.054Z,6744.00
2018-06-02T11:40:24.036Z,6064.00
2018-06-02T11:41:23.966Z,5112.00
2018-06-02T11:42:23.921Z,4284.00
2018-06-02T11:43:23.881Z,4384.00
2018-06-02T11:44:23.880Z,4476.00
2018-06-02T11:45:23.815Z,3452.00
2018-06-02T11:46:23.749Z,2692.00
2018-06-02T11:47:23.700Z,2492.00
2018-06-02T11:48:23.668Z,2320.00
2018-06-02T11:49:23.612Z,3136.00
2018-06-02T11:50:23.596Z,4844.00
2018-06-02T11:51:23.546Z,5628.00
2018-06-02T11:52:23.485Z,5808.00
2018-06-02T11:53:23.437Z,5116.00
2018-06-02T11:54:23.396Z,4112.00
2018-06-02T11:55:23.379Z,4240.00
2018-06-02T11:56:23.308Z,2864.00
2018-06-02T11:57:23.260Z,2320.00
2018-06-02T11:58:23.219Z,2448.00
2018-06-02T11:59:23.173Z,3808.00
2018-06-02T12:00:23.155Z,6168.00
2018-06-02T12:01:23.086Z,7152.00
2018-06-02T12:02:23.045Z,6604.00
2018-06-02T12:03:23.000Z,5516.00
2018-06-02T12:04:22.964Z,5108.00
2018-06-02T12:05:22.932Z,5216.00
2018-06-02T12:06:22.868Z,5348.00
2018-06-02T12:07:22.822Z,5600.00
2018-06-02T12:08:22.782Z,5764.00
2018-06-02T12:09:22.733Z,4952.00
2018-06-02T12:10:22.715Z,5876.00
2018-06-02T12:11:22.646Z,5352.00
2018-06-02T12:12:22.609Z,4620.00
2018-06-02T12:13:22.556Z,3172.00
2018-06-02T12:14:22.520Z,2348.00
2018-06-02T12:15:22.493Z,2200.00
2018-06-02T12:16:22.429Z,1916.00
2018-06-02T12:17:22.386Z,1492.00
2018-06-02T12:18:22.343Z,1648.00
2018-06-02T12:19:22.294Z,2396.00
2018-06-02T12:20:22.273Z,3948.00
2018-06-02T12:21:22.206Z,5568.00
2018-06-02T12:22:22.164Z,7080.00
2018-06-02T12:23:22.113Z,8112.00
2018-06-02T12:24:22.077Z,8504.00
2018-06-02T12:25:22.053Z,8888.00
2018-06-02T12:26:21.989Z,9324.00
2018-06-02T12:27:21.945Z,9828.00
2018-06-02T12:28:21.918Z,10024.00
2018-06-02T12:29:21.857Z,9812.00